Time;durP1;ratioP1;P1;durP2;ratioP2;P2;SDS_P1;SDS_P2;PMS_P1;PMS_P2;Temp;Humidity;BMP_temperature;BMP_pressure;BME280_temperature;BME280_humidity;BME280_pressure;Samples;Min_cycle;Max_cycle;Signal;HPM_P1;HPM_P2
2023/11/18 06:00:18;;;;;;;8.67;5.00;;;;;;;;;;6142107;23;20908;-71
2023/11/18 06:02:44;;;;;;;8.67;5.17;;;;;;;;;;4935758;29;20789;-72
2023/11/18 06:05:12;;;;;;;11.07;5.27;;;;;;;;;;4937517;29;20441;-72
2023/11/18 06:07:39;;;;;;;8.20;4.90;;;;;;;;;;4937719;29;20747;-72
2023/11/18 06:10:06;;;;;;;7.70;5.60;;;;;;;;;;4937749;29;20566;-72
2023/11/18 06:12:32;;;;;;;10.40;5.70;;;;;;;;;;4937671;28;20924;-71
2023/11/18 06:14:59;;;;;;;8.00;4.93;;;;;;;;;;4937435;29;20833;-73
2023/11/18 06:17:25;;;;;;;9.47;5.27;;;;;;;;;;4937583;29;20472;-72
2023/11/18 06:19:51;;;;;;;9.60;5.67;;;;;;;;;;4938324;29;20464;-75
2023/11/18 06:22:17;;;;;;;9.80;5.60;;;;;;;;;;4937410;29;20505;-72
2023/11/18 06:24:43;;;;;;;11.17;5.67;;;;;;;;;;4938697;29;20413;-73
2023/11/18 06:27:10;;;;;;;8.47;5.10;;;;;;;;;;4937523;29;20417;-74
2023/11/18 06:29:36;;;;;;;11.87;6.40;;;;;;;;;;4937915;29;20469;-74
2023/11/18 06:32:02;;;;;;;9.77;6.50;;;;;;;;;;4934764;29;20917;-74
2023/11/18 06:34:28;;;;;;;10.17;6.23;;;;;;;;;;4937782;29;20508;-74
2023/11/18 06:36:56;;;;;;;8.30;6.37;;;;;;;;;;4937290;29;20517;-74
2023/11/18 06:39:29;;;;;;;15.27;7.87;;;;;;;;;;4937763;29;20473;-75
2023/11/18 06:41:55;;;;;;;9.97;6.70;;;;;;;;;;4951796;29;20467;-73
2023/11/18 06:44:24;;;;;;;21.73;9.63;;;;;;;;;;4930080;29;20411;-69
2023/11/18 06:46:50;;;;;;;14.13;7.57;;;;;;;;;;4930152;29;20419;-70
2023/11/18 06:49:17;;;;;;;15.87;8.87;;;;;;;;;;4923943;29;20472;-72
2023/11/18 06:51:43;;;;;;;9.73;5.77;;;;;;;;;;4917819;29;20435;-71
2023/11/18 06:54:09;;;;;;;13.17;6.63;;;;;;;;;;4923649;29;20444;-71
2023/11/18 06:56:39;;;;;;;10.00;5.70;;;;;;;;;;4936716;29;20758;-71
2023/11/18 06:59:06;;;;;;;10.67;6.97;;;;;;;;;;4934768;29;20481;-71
2023/11/18 07:01:33;;;;;;;15.20;6.33;;;;;;;;;;4937046;29;20524;-72
2023/11/18 07:03:59;;;;;;;11.47;6.63;;;;;;;;;;4934792;29;20921;-72
2023/11/18 07:06:26;;;;;;;12.87;6.87;;;;;;;;;;4935766;29;20517;-71
2023/11/18 07:08:52;;;;;;;11.93;6.80;;;;;;;;;;4937410;29;20833;-72
2023/11/18 07:11:18;;;;;;;10.90;7.20;;;;;;;;;;4937098;29;20442;-71
2023/11/18 07:13:45;;;;;;;12.07;7.37;;;;;;;;;;4937246;29;20497;-71
2023/11/18 07:16:12;;;;;;;13.10;7.40;;;;;;;;;;4936815;29;20406;-71
2023/11/18 07:18:38;;;;;;;13.47;7.90;;;;;;;;;;4936665;29;20449;-71
2023/11/18 07:21:05;;;;;;;10.60;6.40;;;;;;;;;;4936542;29;20441;-71
2023/11/18 07:23:31;;;;;;;9.87;6.40;;;;;;;;;;4936433;29;20573;-71
2023/11/18 07:25:57;;;;;;;17.03;7.37;;;;;;;;;;4936178;29;20445;-71
2023/11/18 07:28:23;;;;;;;13.07;7.03;;;;;;;;;;4936325;29;20453;-71
2023/11/18 07:30:49;;;;;;;8.93;6.37;;;;;;;;;;4918067;29;20538;-71
2023/11/18 07:33:16;;;;;;;12.50;6.77;;;;;;;;;;4918395;29;20414;-71
2023/11/18 07:35:42;;;;;;;8.03;5.50;;;;;;;;;;4917601;29;20950;-71
2023/11/18 07:38:09;;;;;;;9.93;5.60;;;;;;;;;;4918252;29;20422;-71
2023/11/18 07:40:35;;;;;;;9.27;6.13;;;;;;;;;;4917804;29;20438;-70
2023/11/18 07:43:04;;;;;;;12.10;6.17;;;;;;;;;;4918541;29;20425;-70
2023/11/18 07:45:39;;;;;;;7.83;5.83;;;;;;;;;;4918064;29;20419;-71
2023/11/18 07:48:09;;;;;;;9.50;6.10;;;;;;;;;;4916495;29;20468;-71
2023/11/18 07:50:35;;;;;;;11.50;6.13;;;;;;;;;;4917884;29;20457;-70
2023/11/18 07:53:02;;;;;;;8.83;5.97;;;;;;;;;;4917771;29;20932;-70
2023/11/18 07:55:28;;;;;;;11.20;6.73;;;;;;;;;;4933495;29;20425;-71
2023/11/18 07:57:54;;;;;;;8.93;5.60;;;;;;;;;;4936116;29;20414;-69
2023/11/18 08:00:20;;;;;;;7.10;4.53;;;;;;;;;;4933706;29;20498;-71
2023/11/18 08:02:47;;;;;;;8.97;5.60;;;;;;;;;;4924643;29;20515;-70
2023/11/18 08:05:18;;;;;;;10.30;5.80;;;;;;;;;;4925238;29;20902;-70
2023/11/18 08:07:44;;;;;;;9.40;5.07;;;;;;;;;;4925026;29;20415;-70
2023/11/18 08:10:18;;;;;;;10.17;6.43;;;;;;;;;;4922205;29;20407;-70
2023/11/18 08:12:44;;;;;;;6.10;4.60;;;;;;;;;;4918654;29;20843;-71
2023/11/18 08:15:11;;;;;;;7.87;6.00;;;;;;;;;;4916450;29;20418;-71
2023/11/18 08:17:37;;;;;;;6.80;5.13;;;;;;;;;;4916459;29;20481;-71
2023/11/18 08:20:15;;;;;;;8.27;5.47;;;;;;;;;;4915285;29;20957;-70
2023/11/18 08:22:43;;;;;;;7.53;5.47;;;;;;;;;;4915162;29;20414;-71
2023/11/18 08:25:10;;;;;;;7.03;4.40;;;;;;;;;;4916116;29;20858;-71
2023/11/18 08:27:36;;;;;;;10.77;5.10;;;;;;;;;;4916700;29;20434;-71
2023/11/18 08:30:06;;;;;;;8.13;4.00;;;;;;;;;;4916340;29;20505;-71
2023/11/18 08:32:32;;;;;;;9.30;4.23;;;;;;;;;;4915114;29;20802;-71
2023/11/18 08:34:58;;;;;;;7.57;4.50;;;;;;;;;;4916375;29;20433;-71
2023/11/18 08:37:24;;;;;;;10.13;4.63;;;;;;;;;;4931621;29;20901;-71
2023/11/18 08:39:51;;;;;;;8.13;5.20;;;;;;;;;;4935044;29;20960;-71
2023/11/18 08:42:16;;;;;;;9.90;4.80;;;;;;;;;;4935822;29;20818;-71
2023/11/18 08:44:43;;;;;;;9.70;5.27;;;;;;;;;;4933591;29;20418;-71
2023/11/18 08:47:09;;;;;;;8.33;4.77;;;;;;;;;;4919902;29;20418;-71
2023/11/18 08:49:37;;;;;;;9.13;4.50;;;;;;;;;;4915973;29;20481;-71
2023/11/18 08:52:03;;;;;;;6.40;4.70;;;;;;;;;;4915952;29;20473;-71
2023/11/18 08:57:25;;;;;;;9.50;4.70;;;;;;;;;;4935585;28;20928;-70
2023/11/18 08:59:51;;;;;;;13.67;5.30;;;;;;;;;;4932067;28;20427;-71
2023/11/18 09:02:23;;;;;;;6.83;4.73;;;;;;;;;;4919117;29;20450;-71
2023/11/18 09:04:49;;;;;;;6.80;4.10;;;;;;;;;;4918630;29;20438;-72
2023/11/18 09:07:15;;;;;;;5.90;4.20;;;;;;;;;;4918671;29;20978;-71
2023/11/18 09:09:42;;;;;;;6.07;3.77;;;;;;;;;;4916507;29;20472;-72
2023/11/18 09:12:08;;;;;;;5.40;4.00;;;;;;;;;;4915990;29;20430;-71
2023/11/18 09:14:34;;;;;;;6.93;3.10;;;;;;;;;;4915498;29;20902;-71
2023/11/18 09:17:01;;;;;;;4.67;3.63;;;;;;;;;;4915565;29;20514;-73
2023/11/18 09:19:27;;;;;;;4.33;3.03;;;;;;;;;;4915792;29;20451;-72
2023/11/18 09:21:54;;;;;;;8.00;3.40;;;;;;;;;;4915807;29;20958;-73
2023/11/18 09:24:24;;;;;;;5.30;3.83;;;;;;;;;;4915824;29;20418;-72
2023/11/18 09:26:50;;;;;;;4.60;3.93;;;;;;;;;;4915428;29;20418;-72
2023/11/18 09:29:23;;;;;;;4.67;3.50;;;;;;;;;;4915493;29;20836;-72
2023/11/18 09:31:49;;;;;;;5.00;3.30;;;;;;;;;;4929044;29;20446;-73
2023/11/18 09:34:17;;;;;;;15.20;6.03;;;;;;;;;;4934526;29;20496;-72
2023/11/18 09:36:48;;;;;;;11.03;5.53;;;;;;;;;;4934184;29;20417;-73
2023/11/18 09:39:28;;;;;;;5.53;3.20;;;;;;;;;;4917905;29;20912;-73
2023/11/18 09:41:56;;;;;;;6.77;3.47;;;;;;;;;;4915436;29;20454;-73
2023/11/18 09:44:23;;;;;;;5.03;2.80;;;;;;;;;;4915615;29;20930;-72
2023/11/18 09:46:57;;;;;;;3.50;2.60;;;;;;;;;;4915337;29;20422;-73
2023/11/18 09:49:33;;;;;;;4.63;2.97;;;;;;;;;;4915237;29;20957;-72
2023/11/18 09:52:00;;;;;;;3.70;2.60;;;;;;;;;;4915312;29;20474;-72
2023/11/18 09:54:55;;;;;;;5.10;2.47;;;;;;;;;;4915188;29;20832;-71
2023/11/18 09:57:26;;;;;;;2.60;2.33;;;;;;;;;;4915182;29;20902;-72
2023/11/18 10:00:20;;;;;;;7.27;3.17;;;;;;;;;;4915323;29;20418;-72
2023/11/18 10:02:50;;;;;;;3.73;2.73;;;;;;;;;;4915325;29;20469;-72
2023/11/18 10:05:20;;;;;;;12.30;3.40;;;;;;;;;;4915096;29;20412;-71
2023/11/18 10:07:50;;;;;;;5.93;2.30;;;;;;;;;;4915408;29;20743;-72
2023/11/18 10:10:20;;;;;;;4.30;2.70;;;;;;;;;;4916131;29;20795;-71
2023/11/18 10:12:51;;;;;;;3.27;2.40;;;;;;;;;;4915404;29;20418;-71
2023/11/18 10:15:18;;;;;;;5.63;2.37;;;;;;;;;;4913807;29;20415;-71
2023/11/18 10:18:06;;;;;;;5.50;2.90;;;;;;;;;;4915767;29;20827;-71
2023/11/18 10:20:51;;;;;;;4.60;2.40;;;;;;;;;;4925729;29;20438;-71
2023/11/18 10:23:21;;;;;;;6.13;2.33;;;;;;;;;;4934230;29;20421;-71
2023/11/18 10:25:49;;;;;;;6.17;2.90;;;;;;;;;;4935367;29;20417;-73
2023/11/18 10:28:36;;;;;;;4.10;2.80;;;;;;;;;;4918789;29;20518;-71
2023/11/18 10:31:06;;;;;;;3.23;2.23;;;;;;;;;;4918524;29;20445;-71
2023/11/18 10:33:36;;;;;;;3.10;2.47;;;;;;;;;;4918626;29;20422;-71
2023/11/18 10:36:07;;;;;;;4.57;2.80;;;;;;;;;;4918149;29;20446;-71
2023/11/18 10:38:43;;;;;;;3.10;2.33;;;;;;;;;;4918263;29;20418;-72
2023/11/18 10:41:09;;;;;;;4.03;2.40;;;;;;;;;;4918207;29;20438;-72
2023/11/18 10:43:40;;;;;;;5.07;2.20;;;;;;;;;;4918308;29;20411;-72
2023/11/18 10:46:13;;;;;;;2.37;2.10;;;;;;;;;;4935867;29;20928;-71
2023/11/18 10:48:42;;;;;;;3.77;2.47;;;;;;;;;;4937206;29;20810;-72
2023/11/18 10:51:12;;;;;;;4.67;2.40;;;;;;;;;;4936904;29;20822;-71
2023/11/18 10:53:39;;;;;;;4.20;2.77;;;;;;;;;;4936970;29;20413;-72
2023/11/18 10:56:05;;;;;;;3.13;2.67;;;;;;;;;;4934445;29;20441;-71
2023/11/18 10:58:41;;;;;;;10.10;2.60;;;;;;;;;;4948232;29;20452;-72
2023/11/18 11:01:11;;;;;;;3.40;2.70;;;;;;;;;;4955595;28;20940;-71
2023/11/18 11:03:57;;;;;;;2.93;2.10;;;;;;;;;;4954623;28;20429;-71
2023/11/18 11:06:30;;;;;;;3.60;2.50;;;;;;;;;;4916020;29;20498;-72
2023/11/18 11:08:58;;;;;;;3.60;2.20;;;;;;;;;;4922066;29;20559;-72
2023/11/18 11:11:26;;;;;;;2.20;1.70;;;;;;;;;;4936959;29;20440;-72
2023/11/18 11:13:59;;;;;;;2.00;1.90;;;;;;;;;;4937138;29;20938;-72
2023/11/18 11:16:33;;;;;;;4.23;2.10;;;;;;;;;;4944768;29;20432;-72
2023/11/18 11:19:08;;;;;;;5.37;2.40;;;;;;;;;;4951407;29;20445;-72
2023/11/18 11:21:35;;;;;;;3.73;2.90;;;;;;;;;;4946709;29;20443;-72
2023/11/18 11:24:12;;;;;;;3.10;2.00;;;;;;;;;;4925314;29;20426;-72
2023/11/18 11:26:54;;;;;;;6.07;2.37;;;;;;;;;;4929749;29;20832;-71
2023/11/18 11:29:27;;;;;;;8.37;4.87;;;;;;;;;;4935578;29;20560;-72
2023/11/18 11:32:14;;;;;;;6.60;2.17;;;;;;;;;;4936602;29;20430;-71
2023/11/18 11:34:42;;;;;;;3.50;2.47;;;;;;;;;;4921586;29;20998;-70
2023/11/18 11:37:09;;;;;;;6.77;2.83;;;;;;;;;;4935389;29;20886;-72
2023/11/18 11:39:36;;;;;;;4.70;2.70;;;;;;;;;;4936092;29;20465;-72
2023/11/18 11:42:02;;;;;;;3.70;2.57;;;;;;;;;;4936315;29;20446;-73
2023/11/18 11:44:30;;;;;;;3.60;2.07;;;;;;;;;;4936393;29;20417;-71
2023/11/18 11:47:00;;;;;;;4.47;1.90;;;;;;;;;;4932991;29;20449;-71
2023/11/18 11:49:29;;;;;;;6.30;3.47;;;;;;;;;;4935962;29;20571;-71
2023/11/18 11:51:55;;;;;;;6.00;1.80;;;;;;;;;;4935680;29;20953;-71
2023/11/18 11:54:23;;;;;;;1.83;1.73;;;;;;;;;;4935852;29;20445;-71
2023/11/18 11:56:57;;;;;;;5.90;2.10;;;;;;;;;;4935416;29;20844;-72
2023/11/18 11:59:55;;;;;;;2.70;2.00;;;;;;;;;;4935756;29;20410;-71
2023/11/18 12:02:28;;;;;;;3.90;1.83;;;;;;;;;;4935553;29;20461;-72
2023/11/18 12:04:58;;;;;;;9.40;2.37;;;;;;;;;;4935579;29;20406;-72
2023/11/18 12:07:27;;;;;;;3.57;2.47;;;;;;;;;;4935413;29;20422;-71
2023/11/18 12:09:57;;;;;;;4.23;1.93;;;;;;;;;;4933730;29;20491;-71
2023/11/18 12:12:26;;;;;;;4.43;1.93;;;;;;;;;;4917882;29;20430;-72
2023/11/18 12:14:56;;;;;;;2.53;2.03;;;;;;;;;;4917053;29;20403;-71
2023/11/18 12:17:22;;;;;;;10.13;3.90;;;;;;;;;;4916728;29;20424;-71
2023/11/18 12:19:48;;;;;;;2.87;2.57;;;;;;;;;;4916674;29;20474;-71
2023/11/18 12:22:19;;;;;;;7.83;2.50;;;;;;;;;;4919872;29;20478;-71
2023/11/18 12:24:46;;;;;;;3.13;2.10;;;;;;;;;;4916691;29;20418;-71
2023/11/18 12:27:13;;;;;;;4.43;2.63;;;;;;;;;;4916515;29;20637;-71
2023/11/18 12:29:48;;;;;;;2.33;2.13;;;;;;;;;;4919290;29;20477;-70
2023/11/18 12:32:34;;;;;;;3.23;1.73;;;;;;;;;;4931963;29;20426;-71
2023/11/18 12:35:00;;;;;;;3.77;2.20;;;;;;;;;;4932322;29;20423;-71
2023/11/18 12:37:30;;;;;;;4.23;2.50;;;;;;;;;;4914844;29;20433;-71
2023/11/18 12:40:17;;;;;;;3.10;1.97;;;;;;;;;;4916596;29;20423;-71
2023/11/18 12:42:58;;;;;;;2.53;1.73;;;;;;;;;;4916387;29;20948;-71
2023/11/18 12:45:37;;;;;;;1.63;1.53;;;;;;;;;;4916220;29;20425;-72
2023/11/18 12:48:11;;;;;;;2.40;1.97;;;;;;;;;;4933558;29;20464;-72
2023/11/18 12:50:39;;;;;;;4.03;1.90;;;;;;;;;;4934436;29;20426;-72
2023/11/18 12:53:06;;;;;;;3.70;2.10;;;;;;;;;;4935078;29;20761;-72
2023/11/18 12:55:33;;;;;;;7.40;2.00;;;;;;;;;;4932714;29;20429;-72
2023/11/18 12:58:02;;;;;;;2.20;1.80;;;;;;;;;;4942396;28;20801;-72
2023/11/18 13:00:30;;;;;;;4.00;1.90;;;;;;;;;;4953766;28;20416;-72
2023/11/18 13:02:57;;;;;;;1.63;1.57;;;;;;;;;;4953681;28;20415;-72
2023/11/18 13:05:29;;;;;;;5.50;2.40;;;;;;;;;;4953873;28;20404;-72
2023/11/18 13:07:55;;;;;;;6.00;3.00;;;;;;;;;;4952927;28;20412;-71
2023/11/18 13:10:22;;;;;;;8.60;3.93;;;;;;;;;;4954232;28;20472;-71
2023/11/18 13:12:49;;;;;;;4.93;2.73;;;;;;;;;;4948409;29;20457;-71
2023/11/18 13:15:16;;;;;;;6.37;2.70;;;;;;;;;;4934554;29;20501;-71
2023/11/18 13:17:56;;;;;;;3.20;2.63;;;;;;;;;;4934920;29;20497;-72
2023/11/18 13:20:25;;;;;;;3.10;1.93;;;;;;;;;;4934592;29;20886;-72
2023/11/18 13:22:52;;;;;;;3.23;2.20;;;;;;;;;;4920037;29;20418;-71
2023/11/18 13:25:18;;;;;;;6.40;2.20;;;;;;;;;;4915450;29;20449;-71
2023/11/18 13:27:44;;;;;;;5.90;3.20;;;;;;;;;;4915574;29;20447;-71
2023/11/18 13:30:13;;;;;;;8.13;2.70;;;;;;;;;;4915615;29;20414;-71
2023/11/18 13:32:41;;;;;;;7.97;2.73;;;;;;;;;;4915546;29;20417;-71
2023/11/18 13:35:08;;;;;;;10.03;3.07;;;;;;;;;;4915838;29;20419;-72
2023/11/18 13:37:34;;;;;;;7.27;3.63;;;;;;;;;;4915430;29;20411;-72
2023/11/18 13:40:00;;;;;;;6.47;2.50;;;;;;;;;;4915432;29;20469;-71
2023/11/18 13:42:28;;;;;;;6.10;2.93;;;;;;;;;;4933127;29;20544;-71
2023/11/18 13:44:54;;;;;;;4.63;2.77;;;;;;;;;;4934510;29;20460;-71
2023/11/18 13:47:20;;;;;;;4.53;3.40;;;;;;;;;;4934094;29;20454;-71
2023/11/18 13:49:50;;;;;;;5.13;3.53;;;;;;;;;;4934328;29;20476;-71
2023/11/18 13:52:18;;;;;;;4.73;2.80;;;;;;;;;;4935431;29;20438;-71
2023/11/18 13:54:45;;;;;;;4.50;3.20;;;;;;;;;;4934441;29;20414;-71
2023/11/18 13:57:11;;;;;;;4.33;2.77;;;;;;;;;;4934223;29;20930;-71
2023/11/18 13:59:38;;;;;;;3.10;2.30;;;;;;;;;;4934453;29;20417;-72
2023/11/18 14:02:05;;;;;;;11.93;5.83;;;;;;;;;;4937833;29;20449;-71
2023/11/18 14:04:33;;;;;;;8.90;3.40;;;;;;;;;;4937820;29;20920;-72
2023/11/18 14:07:04;;;;;;;4.47;2.80;;;;;;;;;;4935891;29;20523;-71
2023/11/18 14:09:33;;;;;;;9.17;3.03;;;;;;;;;;4937911;29;20472;-72
2023/11/18 14:12:01;;;;;;;7.37;4.40;;;;;;;;;;4937871;29;20947;-71
2023/11/18 14:14:29;;;;;;;13.23;4.07;;;;;;;;;;4938244;29;20412;-71
2023/11/18 14:16:58;;;;;;;8.33;3.83;;;;;;;;;;4937415;29;20548;-71
2023/11/18 14:19:28;;;;;;;8.20;3.43;;;;;;;;;;4937829;29;20413;-71
2023/11/18 14:21:55;;;;;;;5.77;3.23;;;;;;;;;;4937567;29;20448;-71
2023/11/18 14:24:27;;;;;;;12.63;5.57;;;;;;;;;;4937863;29;20784;-71
2023/11/18 14:26:54;;;;;;;14.23;6.33;;;;;;;;;;4937343;29;20456;-71
2023/11/18 14:29:20;;;;;;;10.23;4.43;;;;;;;;;;4937439;29;20798;-70
2023/11/18 14:31:47;;;;;;;4.63;3.23;;;;;;;;;;4937641;29;20477;-71
2023/11/18 14:34:13;;;;;;;3.73;2.57;;;;;;;;;;4925294;29;20962;-71
2023/11/18 14:36:40;;;;;;;7.47;3.50;;;;;;;;;;4918110;29;20910;-71
2023/11/18 14:39:09;;;;;;;5.33;3.27;;;;;;;;;;4916894;29;20430;-71
2023/11/18 14:41:36;;;;;;;9.30;4.10;;;;;;;;;;4918295;29;20442;-70
2023/11/18 14:44:04;;;;;;;10.23;3.57;;;;;;;;;;4918154;29;20473;-71
2023/11/18 14:46:31;;;;;;;5.43;3.57;;;;;;;;;;4917800;29;20419;-71
2023/11/18 14:48:57;;;;;;;8.50;3.47;;;;;;;;;;4918415;29;20977;-71
2023/11/18 14:51:23;;;;;;;6.83;3.73;;;;;;;;;;4917997;29;20438;-71
2023/11/18 14:53:49;;;;;;;7.90;3.53;;;;;;;;;;4917958;29;20453;-71
2023/11/18 14:56:15;;;;;;;10.00;4.77;;;;;;;;;;4918052;29;20450;-71
2023/11/18 14:58:41;;;;;;;5.13;3.57;;;;;;;;;;4944094;29;20429;-71
2023/11/18 15:01:08;;;;;;;11.00;4.03;;;;;;;;;;4953445;28;20452;-70
2023/11/18 15:03:35;;;;;;;5.10;3.97;;;;;;;;;;4956972;28;20475;-71
2023/11/18 15:06:00;;;;;;;8.43;4.53;;;;;;;;;;4940782;28;20418;-71
2023/11/18 15:08:26;;;;;;;4.43;3.93;;;;;;;;;;4916737;29;20476;-71
2023/11/18 15:10:53;;;;;;;12.13;4.57;;;;;;;;;;4917788;29;20466;-71
2023/11/18 15:13:20;;;;;;;13.40;6.43;;;;;;;;;;4916915;29;20414;-71
2023/11/18 15:15:49;;;;;;;10.67;5.10;;;;;;;;;;4918126;29;20419;-71
2023/11/18 15:18:17;;;;;;;7.47;4.67;;;;;;;;;;4917623;29;20755;-71
2023/11/18 15:20:52;;;;;;;8.70;4.97;;;;;;;;;;4918519;29;20522;-71
2023/11/18 15:23:27;;;;;;;10.93;4.90;;;;;;;;;;4918569;29;20425;-71
2023/11/18 15:25:53;;;;;;;10.57;5.73;;;;;;;;;;4916176;29;20859;-71
2023/11/18 15:28:19;;;;;;;17.50;6.73;;;;;;;;;;4917151;29;20570;-72
2023/11/18 15:30:45;;;;;;;17.67;6.90;;;;;;;;;;4917452;29;20434;-71
2023/11/18 15:33:13;;;;;;;12.00;6.13;;;;;;;;;;4918348;29;20422;-71
2023/11/18 15:35:43;;;;;;;8.87;5.43;;;;;;;;;;4917106;29;20407;-71
2023/11/18 15:38:10;;;;;;;13.07;5.37;;;;;;;;;;4917018;29;20414;-71
2023/11/18 15:40:36;;;;;;;10.00;4.73;;;;;;;;;;4916938;29;20435;-72
2023/11/18 15:43:05;;;;;;;10.23;3.83;;;;;;;;;;4918388;29;20554;-72
2023/11/18 15:45:32;;;;;;;6.33;3.83;;;;;;;;;;4935803;29;20429;-72
2023/11/18 15:48:04;;;;;;;8.37;4.87;;;;;;;;;;4935659;29;20778;-72
2023/11/18 15:50:30;;;;;;;11.40;4.57;;;;;;;;;;4938224;29;20429;-72
2023/11/18 15:52:56;;;;;;;10.07;4.67;;;;;;;;;;4935940;29;20988;-72
2023/11/18 15:55:24;;;;;;;5.80;4.67;;;;;;;;;;4935282;29;20421;-72
2023/11/18 15:57:55;;;;;;;11.50;4.57;;;;;;;;;;4936143;29;20417;-72
2023/11/18 16:00:21;;;;;;;6.53;4.23;;;;;;;;;;4948153;29;20406;-72
2023/11/18 16:02:48;;;;;;;8.20;4.30;;;;;;;;;;4949255;29;20406;-72
2023/11/18 16:05:18;;;;;;;5.43;3.63;;;;;;;;;;4951516;29;20414;-72
2023/11/18 16:07:56;;;;;;;6.00;3.80;;;;;;;;;;4943583;29;20504;-72
2023/11/18 16:10:27;;;;;;;5.70;3.83;;;;;;;;;;4920502;29;20415;-70
2023/11/18 16:12:57;;;;;;;8.63;3.80;;;;;;;;;;4915400;29;20421;-71
2023/11/18 16:15:24;;;;;;;6.47;3.90;;;;;;;;;;4916571;29;20409;-71
2023/11/18 16:17:50;;;;;;;6.43;4.07;;;;;;;;;;4916884;29;20409;-71
2023/11/18 16:20:17;;;;;;;7.30;4.10;;;;;;;;;;4917342;29;20577;-71
2023/11/18 16:22:46;;;;;;;6.53;3.70;;;;;;;;;;4916098;29;20434;-71
2023/11/18 16:25:12;;;;;;;3.37;3.03;;;;;;;;;;4916210;29;20859;-71
2023/11/18 16:27:38;;;;;;;8.30;4.90;;;;;;;;;;4916268;29;20502;-71
2023/11/18 16:30:05;;;;;;;13.70;3.83;;;;;;;;;;4916067;29;20615;-71
2023/11/18 16:32:31;;;;;;;5.43;3.30;;;;;;;;;;4917805;29;20439;-71
2023/11/18 16:34:57;;;;;;;5.40;2.90;;;;;;;;;;4915986;29;20474;-71
2023/11/18 16:37:23;;;;;;;7.20;3.70;;;;;;;;;;4915756;29;20415;-71
2023/11/18 16:39:50;;;;;;;5.70;3.20;;;;;;;;;;4914991;29;20419;-71
2023/11/18 16:42:16;;;;;;;8.10;4.40;;;;;;;;;;4917016;29;20529;-71
2023/11/18 16:44:42;;;;;;;9.63;5.93;;;;;;;;;;4916389;29;20994;-71
2023/11/18 16:47:08;;;;;;;6.40;4.17;;;;;;;;;;4917445;29;20411;-71
2023/11/18 16:49:34;;;;;;;7.93;4.17;;;;;;;;;;4922582;29;20465;-71
2023/11/18 16:52:03;;;;;;;3.70;3.20;;;;;;;;;;4936089;29;20429;-71
2023/11/18 16:54:29;;;;;;;6.00;3.73;;;;;;;;;;4936402;29;20437;-71
2023/11/18 16:56:55;;;;;;;4.80;3.33;;;;;;;;;;4944319;29;20418;-71
2023/11/18 16:59:21;;;;;;;5.90;3.60;;;;;;;;;;4967224;28;20442;-71
2023/11/18 17:01:47;;;;;;;8.33;4.00;;;;;;;;;;4958356;29;20456;-70
2023/11/18 17:04:13;;;;;;;6.77;3.30;;;;;;;;;;4958971;28;20495;-70
2023/11/18 17:06:39;;;;;;;4.60;3.40;;;;;;;;;;4936684;29;20426;-70
2023/11/18 17:09:05;;;;;;;5.70;3.10;;;;;;;;;;4935051;29;20975;-71
2023/11/18 17:11:31;;;;;;;5.30;3.27;;;;;;;;;;4933517;29;20459;-70
2023/11/18 17:13:57;;;;;;;6.20;2.97;;;;;;;;;;4935226;29;20409;-71
2023/11/18 17:16:26;;;;;;;4.20;2.70;;;;;;;;;;4934553;29;20961;-71
2023/11/18 17:18:53;;;;;;;5.00;3.03;;;;;;;;;;4926246;29;20505;-71
2023/11/18 17:21:19;;;;;;;4.50;3.30;;;;;;;;;;4929509;29;20449;-71
2023/11/18 17:23:45;;;;;;;15.23;3.60;;;;;;;;;;4934548;29;20421;-71
2023/11/18 17:26:11;;;;;;;5.90;3.30;;;;;;;;;;4934169;29;20432;-71
2023/11/18 17:28:37;;;;;;;4.40;3.07;;;;;;;;;;4935569;29;20520;-71
2023/11/18 17:31:03;;;;;;;4.17;3.00;;;;;;;;;;4935675;29;20874;-71
2023/11/18 17:33:31;;;;;;;9.77;3.80;;;;;;;;;;4933341;29;20587;-71
2023/11/18 17:35:58;;;;;;;3.87;2.73;;;;;;;;;;4936402;29;20444;-70
2023/11/18 17:38:24;;;;;;;4.27;2.80;;;;;;;;;;4938365;29;20414;-69
2023/11/18 17:40:50;;;;;;;4.30;2.90;;;;;;;;;;4936679;29;20473;-70
2023/11/18 17:43:16;;;;;;;8.43;3.80;;;;;;;;;;4936943;29;20417;-70
2023/11/18 17:45:42;;;;;;;9.07;2.90;;;;;;;;;;4920798;29;20422;-70
2023/11/18 17:48:08;;;;;;;10.73;3.30;;;;;;;;;;4919174;29;21059;-70
2023/11/18 17:50:35;;;;;;;5.73;2.90;;;;;;;;;;4919447;29;20827;-69
2023/11/18 17:53:04;;;;;;;4.23;2.93;;;;;;;;;;4919354;29;20925;-69
2023/11/18 17:55:30;;;;;;;3.07;2.50;;;;;;;;;;4918887;29;20406;-70
2023/11/18 17:57:56;;;;;;;4.20;2.73;;;;;;;;;;4920307;29;20421;-71
2023/11/18 18:00:23;;;;;;;4.13;2.43;;;;;;;;;;4920337;29;20613;-71
2023/11/18 18:02:49;;;;;;;3.93;2.80;;;;;;;;;;4926113;29;20427;-72
2023/11/18 18:05:15;;;;;;;5.90;2.77;;;;;;;;;;4941718;29;20485;-72
2023/11/18 18:07:42;;;;;;;3.80;3.07;;;;;;;;;;4940247;29;20492;-71
2023/11/18 18:10:08;;;;;;;4.30;2.83;;;;;;;;;;4943879;29;20473;-72
2023/11/18 18:12:35;;;;;;;4.37;2.90;;;;;;;;;;4958936;29;20413;-71
2023/11/18 18:15:03;;;;;;;4.70;2.93;;;;;;;;;;5424966;23;20456;-71
2023/11/18 18:17:30;;;;;;;6.53;2.73;;;;;;;;;;4930013;29;20460;-72
2023/11/18 18:19:56;;;;;;;4.20;2.90;;;;;;;;;;4921221;29;20422;-71
2023/11/18 18:22:23;;;;;;;4.93;2.90;;;;;;;;;;4922628;29;20927;-71
2023/11/18 18:24:48;;;;;;;7.70;4.00;;;;;;;;;;4919356;29;20452;-69
2023/11/18 18:27:15;;;;;;;5.13;3.33;;;;;;;;;;4918628;29;20426;-71
2023/11/18 18:29:41;;;;;;;11.40;3.77;;;;;;;;;;4917555;29;20472;-71
2023/11/18 18:32:09;;;;;;;7.40;3.63;;;;;;;;;;4916872;29;20422;-71
2023/11/18 18:34:36;;;;;;;5.60;2.90;;;;;;;;;;4918262;29;20450;-71
2023/11/18 18:37:03;;;;;;;3.50;3.27;;;;;;;;;;4917192;29;20407;-70
2023/11/18 18:39:29;;;;;;;5.67;3.27;;;;;;;;;;4917872;29;20414;-71
2023/11/18 18:41:55;;;;;;;9.30;3.80;;;;;;;;;;4916959;29;20414;-70
2023/11/18 18:44:21;;;;;;;4.57;3.33;;;;;;;;;;4918284;29;20926;-72
2023/11/18 18:46:47;;;;;;;10.43;3.20;;;;;;;;;;4899593;29;20452;-70
2023/11/18 18:49:15;;;;;;;7.00;4.27;;;;;;;;;;4899725;29;20833;-70
2023/11/18 18:51:41;;;;;;;10.33;4.00;;;;;;;;;;4900401;29;20422;-70
2023/11/18 18:54:09;;;;;;;5.43;3.33;;;;;;;;;;4914357;29;20426;-70
2023/11/18 18:56:35;;;;;;;5.73;4.00;;;;;;;;;;4917850;29;20415;-70
2023/11/18 18:59:01;;;;;;;4.80;3.63;;;;;;;;;;4916648;29;20430;-69
2023/11/18 19:01:28;;;;;;;6.07;3.60;;;;;;;;;;4918984;29;20498;-69
2023/11/18 19:03:54;;;;;;;9.53;4.43;;;;;;;;;;4922168;29;20418;-70
2023/11/18 19:06:20;;;;;;;8.03;4.43;;;;;;;;;;4919382;29;20453;-69
2023/11/18 19:08:46;;;;;;;6.23;3.90;;;;;;;;;;4918011;29;20458;-69
2023/11/18 19:11:12;;;;;;;8.90;4.20;;;;;;;;;;4917911;29;20449;-70
2023/11/18 19:13:37;;;;;;;9.53;4.10;;;;;;;;;;4916330;29;20768;-70
2023/11/18 19:16:04;;;;;;;10.03;4.37;;;;;;;;;;4917174;29;20839;-69
2023/11/18 19:18:30;;;;;;;7.27;4.90;;;;;;;;;;4917272;29;20751;-69
2023/11/18 19:20:56;;;;;;;7.03;4.00;;;;;;;;;;4915718;29;20426;-70
2023/11/18 19:23:21;;;;;;;11.70;5.00;;;;;;;;;;4917590;29;20514;-70
2023/11/18 19:25:47;;;;;;;7.97;4.50;;;;;;;;;;4916920;29;20529;-69
2023/11/18 19:28:14;;;;;;;10.63;5.30;;;;;;;;;;4917122;29;20933;-70
2023/11/18 19:30:40;;;;;;;8.93;5.23;;;;;;;;;;4916451;29;20427;-69
2023/11/18 19:33:06;;;;;;;7.90;4.50;;;;;;;;;;4918359;29;20780;-71
2023/11/18 19:35:32;;;;;;;8.73;5.63;;;;;;;;;;4918100;29;20450;-71
2023/11/18 19:38:00;;;;;;;8.67;4.60;;;;;;;;;;4918168;29;20521;-70
2023/11/18 19:40:27;;;;;;;12.07;5.23;;;;;;;;;;4918039;29;20419;-70
2023/11/18 19:42:53;;;;;;;9.47;5.93;;;;;;;;;;4917886;29;20754;-72
2023/11/18 19:45:19;;;;;;;10.07;5.53;;;;;;;;;;4917040;29;20437;-70
2023/11/18 19:47:45;;;;;;;14.53;5.40;;;;;;;;;;4917064;29;20410;-70
2023/11/18 19:50:14;;;;;;;10.57;6.43;;;;;;;;;;4915502;29;20831;-71
2023/11/18 19:52:40;;;;;;;12.97;6.47;;;;;;;;;;4915619;29;20426;-70
2023/11/18 19:55:06;;;;;;;16.20;8.03;;;;;;;;;;4916627;29;20501;-71
2023/11/18 19:57:32;;;;;;;11.93;6.83;;;;;;;;;;4916448;29;20925;-70
2023/11/18 19:59:58;;;;;;;12.93;6.93;;;;;;;;;;4916926;29;20426;-70
2023/11/18 20:02:24;;;;;;;11.33;5.97;;;;;;;;;;4915148;29;20543;-69
2023/11/18 20:04:50;;;;;;;11.90;5.97;;;;;;;;;;4916627;29;20490;-70
2023/11/18 20:07:18;;;;;;;10.17;5.80;;;;;;;;;;4915023;29;20463;-70
2023/11/18 20:09:44;;;;;;;8.23;6.43;;;;;;;;;;4916395;29;20470;-70
2023/11/18 20:12:10;;;;;;;12.53;6.40;;;;;;;;;;4916781;29;20894;-70
2023/11/18 20:14:39;;;;;;;9.63;6.37;;;;;;;;;;4915303;29;20441;-70
2023/11/18 20:17:07;;;;;;;13.10;7.27;;;;;;;;;;4916167;29;20892;-71
2023/11/18 20:19:35;;;;;;;9.80;6.20;;;;;;;;;;4916852;29;20422;-71
2023/11/18 20:22:01;;;;;;;10.50;6.57;;;;;;;;;;4916926;29;20414;-71
2023/11/18 20:24:28;;;;;;;14.73;7.90;;;;;;;;;;4916926;29;20457;-71
2023/11/18 20:26:54;;;;;;;11.87;6.80;;;;;;;;;;4916427;29;20490;-71
2023/11/18 20:29:20;;;;;;;15.33;8.60;;;;;;;;;;4916888;29;20466;-71
2023/11/18 20:31:46;;;;;;;12.50;6.53;;;;;;;;;;4916670;29;20781;-72
2023/11/18 20:34:13;;;;;;;16.10;7.57;;;;;;;;;;4915313;29;20411;-70
2023/11/18 20:36:39;;;;;;;17.17;7.67;;;;;;;;;;4915076;29;20423;-72
2023/11/18 20:39:06;;;;;;;20.80;7.80;;;;;;;;;;4914740;29;20434;-72
2023/11/18 20:41:32;;;;;;;12.93;7.50;;;;;;;;;;4916049;29;20430;-70
2023/11/18 20:43:59;;;;;;;13.37;7.80;;;;;;;;;;4917412;29;20978;-70
2023/11/18 20:46:26;;;;;;;12.80;6.77;;;;;;;;;;4915670;29;20415;-70
2023/11/18 20:48:52;;;;;;;18.60;8.60;;;;;;;;;;4915684;29;20569;-71